createdAt,value
2022-08-07T00:00:18.778Z,98899.25
2022-08-07T00:02:46.989Z,98897.03
2022-08-07T00:05:14.126Z,98907.91
2022-08-07T00:07:41.688Z,98908.94
2022-08-07T00:10:27.206Z,98904.00
2022-08-07T00:13:00.485Z,98901.91
2022-08-07T00:15:38.170Z,98904.37
2022-08-07T00:18:19.899Z,98906.66
2022-08-07T00:20:49.637Z,98907.56
2022-08-07T00:23:17.708Z,98906.56
2022-08-07T00:25:45.801Z,98899.28
2022-08-07T00:28:21.989Z,98898.91
2022-08-07T00:30:49.457Z,98900.91
2022-08-07T00:33:16.642Z,98899.28
2022-08-07T00:35:49.502Z,98907.97
2022-08-07T00:38:16.874Z,98897.63
2022-08-07T00:40:59.889Z,98904.41
2022-08-07T00:44:01.308Z,98909.88
2022-08-07T00:46:14.593Z,98910.63
2022-08-07T00:48:42.411Z,98907.31
2022-08-07T00:51:09.976Z,98907.06
2022-08-07T00:53:38.970Z,98900.75
2022-08-07T00:56:18.524Z,98899.19
2022-08-07T00:58:47.296Z,98893.88
2022-08-07T01:01:18.172Z,98898.19
2022-08-07T01:03:57.127Z,98896.81
2022-08-07T01:06:30.453Z,98894.34
2022-08-07T01:09:01.058Z,98888.75
2022-08-07T01:12:09.539Z,98890.22
2022-08-07T01:14:21.449Z,98886.56
2022-08-07T01:16:56.558Z,98899.66
2022-08-07T01:19:27.036Z,98897.38
2022-08-07T01:21:59.515Z,98895.72
2022-08-07T01:24:30.643Z,98900.56
2022-08-07T01:26:59.875Z,98894.16
2022-08-07T01:29:31.417Z,98895.09
2022-08-07T01:32:05.564Z,98896.72
2022-08-07T01:34:44.511Z,98892.69
2022-08-07T01:37:17.297Z,98893.59
2022-08-07T01:39:48.011Z,98896.50
2022-08-07T01:42:39.794Z,98898.16
2022-08-07T01:45:09.835Z,98890.75
2022-08-07T01:48:17.626Z,98891.94
2022-08-07T01:50:32.175Z,98892.38
2022-08-07T01:53:00.484Z,98891.56
2022-08-07T01:55:33.659Z,98891.19
2022-08-07T01:58:06.727Z,98899.16
2022-08-07T02:01:09.523Z,98892.47
2022-08-07T02:03:48.660Z,98898.97
2022-08-07T02:06:31.614Z,98887.72
2022-08-07T02:09:04.373Z,98886.25
2022-08-07T02:12:03.720Z,98891.19
2022-08-07T02:14:35.711Z,98893.28
2022-08-07T02:17:11.222Z,98900.84
2022-08-07T02:20:04.586Z,98905.75
2022-08-07T02:22:29.988Z,98902.84
2022-08-07T02:24:58.035Z,98906.97
2022-08-07T02:27:34.229Z,98906.78
2022-08-07T02:30:07.447Z,98905.03
2022-08-07T02:32:39.524Z,98904.22
2022-08-07T02:36:29.364Z,98911.37
2022-08-07T02:38:15.672Z,98920.16
2022-08-07T02:40:46.683Z,98910.72
2022-08-07T02:43:15.659Z,98914.22
2022-08-07T02:45:59.145Z,98912.91
2022-08-07T02:48:30.873Z,98915.22
2022-08-07T02:51:03.528Z,98911.19
2022-08-07T02:53:38.695Z,98915.75
2022-08-07T02:56:17.437Z,98920.50
2022-08-07T02:58:50.533Z,98910.16
2022-08-07T03:01:36.009Z,98914.84
2022-08-07T03:04:12.576Z,98914.03
2022-08-07T03:06:44.924Z,98915.09
2022-08-07T03:09:14.056Z,98919.59
2022-08-07T03:11:52.258Z,98914.84
2022-08-07T03:14:28.030Z,98909.16
2022-08-07T03:16:56.682Z,98901.47
2022-08-07T03:19:29.004Z,98904.50
2022-08-07T03:22:06.262Z,98913.66
2022-08-07T03:24:34.724Z,98913.19
2022-08-07T03:27:05.272Z,98912.38
2022-08-07T03:29:49.637Z,98906.69
2022-08-07T03:32:21.991Z,98918.59
2022-08-07T03:35:16.980Z,98920.69
2022-08-07T03:37:45.911Z,98912.56
2022-08-07T03:40:15.741Z,98907.62
2022-08-07T03:42:44.229Z,98919.59
2022-08-07T03:45:12.185Z,98923.16
2022-08-07T03:47:59.433Z,98927.81
2022-08-07T03:50:28.764Z,98940.44
2022-08-07T03:53:00.180Z,98938.78
2022-08-07T03:55:58.142Z,98943.09
2022-08-07T03:59:05.127Z,98947.84
2022-08-07T04:01:07.636Z,98951.59
2022-08-07T04:03:53.549Z,98959.66
2022-08-07T04:06:36.318Z,98954.25
2022-08-07T04:09:15.436Z,98963.66
2022-08-07T04:12:25.501Z,98959.66
2022-08-07T04:14:38.817Z,98962.69
2022-08-07T04:17:19.966Z,98966.59
2022-08-07T04:19:52.050Z,98961.09
2022-08-07T04:22:20.194Z,98971.16
2022-08-07T04:24:51.356Z,98978.03
2022-08-07T04:27:35.972Z,98982.06
2022-08-07T04:30:11.743Z,98986.91
2022-08-07T04:32:44.959Z,98960.47
2022-08-07T04:35:15.912Z,98969.16
2022-08-07T04:38:03.711Z,98976.09
2022-08-07T04:40:31.390Z,98975.19
2022-08-07T04:43:01.626Z,98979.44
2022-08-07T04:46:00.372Z,98980.69
2022-08-07T04:48:44.488Z,98979.06
2022-08-07T04:51:27.781Z,98978.94
2022-08-07T04:54:06.949Z,98982.72
2022-08-07T04:58:13.693Z,98980.50
2022-08-07T05:00:11.803Z,98976.09
2022-08-07T05:02:36.565Z,98978.75
2022-08-07T05:05:53.436Z,98975.09
2022-08-07T05:09:00.024Z,98979.75
2022-08-07T05:11:57.262Z,98974.75
2022-08-07T05:14:51.873Z,98982.03
2022-08-07T05:17:52.777Z,98987.50
2022-08-07T05:20:09.983Z,98991.25
2022-08-07T05:22:38.467Z,98994.44
2022-08-07T05:25:25.278Z,98998.44
2022-08-07T05:28:02.452Z,99000.72
2022-08-07T05:30:47.150Z,98999.12
2022-08-07T05:33:15.214Z,99008.19
2022-08-07T05:35:46.744Z,99011.13
2022-08-07T05:39:00.643Z,99008.16
2022-08-07T05:41:11.966Z,99008.63
2022-08-07T05:43:49.569Z,99014.69
2022-08-07T05:46:31.667Z,99015.22
2022-08-07T05:48:59.748Z,99019.63
2022-08-07T05:51:31.838Z,99029.78
2022-08-07T05:54:13.096Z,99027.41
2022-08-07T05:56:52.409Z,99014.00
2022-08-07T05:59:21.267Z,99026.97
2022-08-07T06:01:49.515Z,99026.63
2022-08-07T06:04:18.408Z,99030.16
2022-08-07T06:06:47.668Z,99025.84
2022-08-07T06:10:03.801Z,99019.13
2022-08-07T06:12:15.325Z,99025.25
2022-08-07T06:14:49.693Z,99029.28
2022-08-07T06:17:19.415Z,99028.88
2022-08-07T06:20:03.451Z,99036.81
2022-08-07T06:22:38.924Z,99035.22
2022-08-07T06:25:10.181Z,99035.78
2022-08-07T06:27:44.270Z,99040.72
2022-08-07T06:30:37.987Z,99040.75
2022-08-07T06:33:16.185Z,99052.06
2022-08-07T06:35:45.893Z,99042.19
2022-08-07T06:38:31.643Z,99049.41
2022-08-07T06:40:59.842Z,99052.16
2022-08-07T06:43:39.442Z,99052.84
2022-08-07T06:46:12.156Z,99043.44
2022-08-07T06:48:42.173Z,99046.44
2022-08-07T06:51:30.943Z,99054.75
2022-08-07T06:55:29.150Z,99057.69
2022-08-07T06:56:51.772Z,99059.47
2022-08-07T07:00:14.594Z,99051.34
2022-08-07T07:02:49.052Z,99061.59
2022-08-07T07:05:06.956Z,99067.75
2022-08-07T07:07:59.402Z,99058.03
2022-08-07T07:10:29.686Z,99063.94
2022-08-07T07:13:04.573Z,99053.84
2022-08-07T07:15:36.154Z,99054.06
2022-08-07T07:18:37.669Z,99060.78
2022-08-07T07:21:40.204Z,99058.38
2022-08-07T07:24:17.990Z,99065.47
2022-08-07T07:26:51.906Z,99061.97
2022-08-07T07:29:38.710Z,99064.63
2022-08-07T07:32:12.942Z,99059.19
2022-08-07T07:34:48.586Z,99055.16
2022-08-07T07:37:45.480Z,99063.53
2022-08-07T07:40:14.958Z,99054.22
2022-08-07T07:42:47.116Z,99057.34
2022-08-07T07:45:19.591Z,99063.94
2022-08-07T07:47:53.259Z,99055.69
2022-08-07T07:50:36.681Z,99053.84
2022-08-07T07:53:20.462Z,99057.13
2022-08-07T07:55:57.975Z,99060.44
2022-08-07T07:58:40.165Z,99061.84
2022-08-07T08:02:03.331Z,99058.66
2022-08-07T08:04:09.523Z,99060.16
2022-08-07T08:06:40.787Z,99062.13
2022-08-07T08:09:20.287Z,99062.25
2022-08-07T08:12:02.963Z,99068.41
2022-08-07T08:14:36.399Z,99071.84
2022-08-07T08:17:56.230Z,99066.13
2022-08-07T08:20:22.232Z,99067.78
2022-08-07T08:23:09.406Z,99073.44
2022-08-07T08:25:56.976Z,99070.38
2022-08-07T08:28:38.112Z,99063.16
2022-08-07T08:31:22.951Z,99062.00
2022-08-07T08:34:06.216Z,99064.16
2022-08-07T08:36:36.692Z,99067.53
2022-08-07T08:39:07.724Z,99061.53
2022-08-07T08:41:57.705Z,99065.94
2022-08-07T08:44:49.008Z,99067.94
2022-08-07T08:47:31.429Z,99067.66
2022-08-07T08:50:34.750Z,99072.91
2022-08-07T08:53:15.220Z,99061.78
2022-08-07T08:55:58.885Z,99064.63
2022-08-07T08:58:35.291Z,99065.25
2022-08-07T09:01:15.059Z,99062.38
2022-08-07T09:03:55.574Z,99062.56
2022-08-07T09:06:42.717Z,99057.66
2022-08-07T09:09:44.622Z,99063.63
2022-08-07T09:12:31.587Z,99056.75
2022-08-07T09:16:25.606Z,99065.81
2022-08-07T09:18:53.307Z,99065.91
2022-08-07T09:22:09.725Z,99065.91
2022-08-07T09:24:59.451Z,99066.41
2022-08-07T09:27:38.363Z,99065.38
2022-08-07T09:30:27.902Z,99066.22
2022-08-07T09:33:12.133Z,99056.72
2022-08-07T09:36:06.015Z,99059.41
2022-08-07T09:38:54.738Z,99063.25
2022-08-07T09:41:58.437Z,99059.25
2022-08-07T09:44:58.364Z,99048.41
2022-08-07T09:47:58.963Z,99044.56
2022-08-07T09:51:25.951Z,99044.75
2022-08-07T09:53:59.311Z,99040.75
2022-08-07T09:56:46.440Z,99040.66
2022-08-07T10:00:00.330Z,99034.09
2022-08-07T10:02:31.582Z,99037.12
2022-08-07T10:05:12.083Z,99039.41
2022-08-07T10:07:58.557Z,99031.50
2022-08-07T10:12:00.248Z,99036.00
2022-08-07T10:14:12.794Z,99024.81
2022-08-07T10:16:59.712Z,99023.41
2022-08-07T10:19:46.136Z,99017.22
2022-08-07T10:22:45.397Z,99017.09
2022-08-07T10:25:13.127Z,99016.72
2022-08-07T10:27:58.803Z,99017.78
2022-08-07T10:30:48.275Z,99008.16
2022-08-07T10:34:06.218Z,99009.44
2022-08-07T10:36:45.459Z,99008.59
2022-08-07T10:40:05.210Z,99004.97
2022-08-07T10:42:38.634Z,99005.81
2022-08-07T10:45:44.420Z,99003.22
2022-08-07T10:48:21.461Z,99001.22
2022-08-07T10:51:16.874Z,99000.94
2022-08-07T10:54:08.838Z,98996.53
2022-08-07T10:56:54.868Z,98997.13
2022-08-07T10:59:47.985Z,99000.13
2022-08-07T11:02:42.476Z,98996.88
2022-08-07T11:05:36.007Z,98990.81
2022-08-07T11:08:46.059Z,98988.06
2022-08-07T11:11:24.290Z,98985.09
2022-08-07T11:14:44.755Z,98981.66
2022-08-07T11:16:52.821Z,98978.34
2022-08-07T11:19:37.448Z,98972.75
2022-08-07T11:22:33.264Z,98964.53
2022-08-07T11:25:42.560Z,98971.94
2022-08-07T11:28:24.694Z,98968.12
2022-08-07T11:31:08.891Z,98958.63
2022-08-07T11:33:53.541Z,98951.59
2022-08-07T11:36:37.638Z,98955.88
2022-08-07T11:39:19.489Z,98954.75
2022-08-07T11:42:02.076Z,98953.72
2022-08-07T11:44:57.951Z,98957.47
2022-08-07T11:48:03.448Z,98954.44
2022-08-07T11:51:04.631Z,98944.41
2022-08-07T11:54:02.350Z,98945.19
2022-08-07T11:57:01.315Z,98950.34
2022-08-07T12:00:10.777Z,98941.59
2022-08-07T12:03:45.369Z,98932.78
2022-08-07T12:06:37.694Z,98931.94
2022-08-07T12:09:16.257Z,98928.75
2022-08-07T12:12:09.450Z,98911.66
2022-08-07T12:14:55.762Z,98923.28
2022-08-07T12:17:58.609Z,98921.94
2022-08-07T12:20:36.538Z,98922.19
2022-08-07T12:23:09.110Z,98917.50
2022-08-07T12:26:03.053Z,98911.91
2022-08-07T12:29:07.017Z,98914.91
2022-08-07T12:32:01.743Z,98917.25
2022-08-07T12:34:33.712Z,98911.72
2022-08-07T12:37:01.831Z,98898.03
2022-08-07T12:39:44.506Z,98912.97
2022-08-07T12:42:27.870Z,98903.69
2022-08-07T12:44:58.392Z,98903.22
2022-08-07T12:47:44.033Z,98902.53
2022-08-07T12:50:49.680Z,98902.50
2022-08-07T12:54:03.155Z,98903.41
2022-08-07T12:56:31.337Z,98889.78
2022-08-07T12:58:59.785Z,98891.50
2022-08-07T13:01:32.616Z,98890.25
2022-08-07T13:04:13.761Z,98895.37
2022-08-07T13:08:14.363Z,98891.91
2022-08-07T13:10:28.852Z,98890.84
2022-08-07T13:13:46.659Z,98889.59
2022-08-07T13:16:21.654Z,98882.75
2022-08-07T13:19:21.645Z,98880.09
2022-08-07T13:22:31.618Z,98871.63
2022-08-07T13:25:24.175Z,98878.03
2022-08-07T13:28:13.353Z,98878.06
2022-08-07T13:30:49.131Z,98876.94
2022-08-07T13:34:33.212Z,98872.72
2022-08-07T13:36:51.385Z,98872.41
2022-08-07T13:40:36.371Z,98869.31
2022-08-07T13:42:46.478Z,98872.94
2022-08-07T13:46:11.610Z,98868.53
2022-08-07T13:48:05.845Z,98854.69
2022-08-07T13:50:58.849Z,98849.59
2022-08-07T13:53:55.239Z,98850.13
2022-08-07T13:56:36.367Z,98853.19
2022-08-07T13:59:15.774Z,98842.87
2022-08-07T14:01:59.268Z,98842.22
2022-08-07T14:04:35.731Z,98841.87
2022-08-07T14:07:09.597Z,98841.38
2022-08-07T14:09:42.214Z,98843.63
2022-08-07T14:12:55.679Z,98842.06
2022-08-07T14:15:31.996Z,98842.31
2022-08-07T14:18:28.611Z,98828.16
2022-08-07T14:22:00.541Z,98821.75
2022-08-07T14:24:06.605Z,98825.28
2022-08-07T14:26:50.733Z,98823.09
2022-08-07T14:30:06.432Z,98818.50
2022-08-07T14:32:15.115Z,98814.16
2022-08-07T14:37:36.294Z,98814.19
2022-08-07T14:40:17.119Z,98816.12
2022-08-07T14:43:56.038Z,98811.00
2022-08-07T14:45:54.614Z,98804.13
2022-08-07T14:48:27.627Z,98806.47
2022-08-07T14:51:01.702Z,98806.28
2022-08-07T14:54:05.923Z,98802.47
2022-08-07T15:00:05.322Z,98793.94
2022-08-07T15:04:57.871Z,98800.34
2022-08-07T15:07:47.135Z,98793.03
2022-08-07T15:10:25.016Z,98790.78
2022-08-07T15:13:00.060Z,98791.69
2022-08-07T15:15:40.602Z,98789.66
2022-08-07T15:18:14.286Z,98782.22
2022-08-07T15:21:03.984Z,98791.28
2022-08-07T15:26:33.921Z,98782.50
2022-08-07T15:30:08.644Z,98786.75
2022-08-07T15:32:01.903Z,98783.78
2022-08-07T15:34:50.569Z,98768.13
2022-08-07T15:37:27.600Z,98781.72
2022-08-07T15:39:59.168Z,98781.16
2022-08-07T15:42:46.368Z,98779.25
2022-08-07T15:45:20.989Z,98777.69
2022-08-07T15:48:01.924Z,98776.97
2022-08-07T15:50:37.935Z,98774.50
2022-08-07T15:53:51.639Z,98771.53
2022-08-07T15:56:33.100Z,98772.34
2022-08-07T15:59:06.468Z,98762.56
2022-08-07T16:02:01.929Z,98765.19
2022-08-07T16:04:32.107Z,98771.78
2022-08-07T16:07:04.684Z,98768.72
2022-08-07T16:09:41.136Z,98762.44
2022-08-07T16:12:31.617Z,98766.25
2022-08-07T16:15:54.823Z,98766.81
2022-08-07T16:18:50.053Z,98771.59
2022-08-07T16:21:44.058Z,98769.56
2022-08-07T16:24:33.866Z,98770.81
2022-08-07T16:27:45.125Z,98775.31
2022-08-07T16:30:31.715Z,98773.66
2022-08-07T16:34:01.305Z,98773.63
2022-08-07T16:36:19.662Z,98769.78
2022-08-07T16:39:33.460Z,98767.44
2022-08-07T16:42:22.412Z,98772.94
2022-08-07T16:45:15.613Z,98766.31
2022-08-07T16:48:09.487Z,98778.19
2022-08-07T16:51:20.988Z,98766.41
2022-08-07T16:53:48.086Z,98773.81
2022-08-07T16:56:29.933Z,98766.00
2022-08-07T16:59:11.190Z,98766.16
2022-08-07T17:02:09.084Z,98779.34
2022-08-07T17:04:51.050Z,98776.69
2022-08-07T17:07:55.087Z,98775.63
2022-08-07T17:10:38.750Z,98769.13
2022-08-07T17:13:41.645Z,98770.72
2022-08-07T17:16:40.042Z,98778.00
2022-08-07T17:19:17.652Z,98773.75
2022-08-07T17:22:30.212Z,98784.94
2022-08-07T17:25:13.202Z,98776.63
2022-08-07T17:27:59.407Z,98772.50
2022-08-07T17:30:36.075Z,98776.91
2022-08-07T17:34:10.023Z,98772.50
2022-08-07T17:36:27.466Z,98776.72
2022-08-07T17:39:58.892Z,98772.25
2022-08-07T17:42:59.674Z,98776.03
2022-08-07T17:45:40.397Z,98783.44
2022-08-07T17:48:30.742Z,98791.31
2022-08-07T17:51:16.311Z,98790.72
2022-08-07T17:54:13.149Z,98790.97
2022-08-07T17:57:19.317Z,98794.69
2022-08-07T17:59:55.174Z,98793.44
2022-08-07T18:02:29.717Z,98797.69
2022-08-07T18:05:20.650Z,98801.41
2022-08-07T18:08:24.386Z,98804.13
2022-08-07T18:12:16.539Z,98813.72
2022-08-07T18:14:37.578Z,98824.34
2022-08-07T18:18:45.374Z,98825.97
2022-08-07T18:21:11.036Z,98829.53
2022-08-07T18:23:43.106Z,98828.03
2022-08-07T18:26:16.394Z,98826.16
2022-08-07T18:30:07.092Z,98827.72
2022-08-07T18:32:17.746Z,98832.12
2022-08-07T18:35:07.895Z,98829.53
2022-08-07T18:38:55.184Z,98843.44
2022-08-07T18:41:09.312Z,98856.75
2022-08-07T18:43:49.722Z,98844.16
2022-08-07T18:46:27.214Z,98839.94
2022-08-07T18:50:18.865Z,98838.81
2022-08-07T18:52:37.557Z,98850.81
2022-08-07T18:55:40.524Z,98843.84
2022-08-07T18:58:22.641Z,98851.69
2022-08-07T19:01:00.845Z,98847.00
2022-08-07T19:03:55.701Z,98854.78
2022-08-07T19:06:48.355Z,98848.75
2022-08-07T19:09:55.551Z,98858.88
2022-08-07T19:12:59.174Z,98861.78
2022-08-07T19:16:04.759Z,98864.63
2022-08-07T19:18:45.089Z,98878.91
2022-08-07T19:21:46.629Z,98891.69
2022-08-07T19:24:48.805Z,98906.94
2022-08-07T19:28:57.463Z,98914.16
2022-08-07T19:31:04.297Z,98912.59
2022-08-07T19:33:10.175Z,98932.25
2022-08-07T19:35:41.147Z,98934.78
2022-08-07T19:38:16.826Z,98936.50
2022-08-07T19:40:50.407Z,98937.69
2022-08-07T19:43:50.123Z,98940.81
2022-08-07T19:46:10.526Z,98928.44
2022-08-07T19:48:42.438Z,98929.34
2022-08-07T19:51:19.344Z,98930.16
2022-08-07T19:54:31.356Z,98934.69
2022-08-07T19:57:51.466Z,98932.91
2022-08-07T19:59:40.540Z,98934.25
2022-08-07T20:02:24.147Z,98940.50
2022-08-07T20:04:56.203Z,98932.34
2022-08-07T20:07:46.096Z,98929.47
2022-08-07T20:10:36.797Z,98943.16
2022-08-07T20:13:22.475Z,98944.94
2022-08-07T20:15:53.890Z,98935.50
2022-08-07T20:18:33.641Z,98943.34
2022-08-07T20:21:20.824Z,98944.41
2022-08-07T20:24:04.176Z,98948.81
2022-08-07T20:26:45.201Z,98951.31
2022-08-07T20:29:48.672Z,98956.63
2022-08-07T20:32:11.651Z,98956.44
2022-08-07T20:34:52.096Z,98951.31
2022-08-07T20:37:25.458Z,98951.41
2022-08-07T20:40:02.521Z,98952.06
2022-08-07T20:42:33.904Z,98957.41
2022-08-07T20:45:01.759Z,98953.97
2022-08-07T20:47:56.877Z,98954.50
2022-08-07T20:50:22.031Z,98944.53
2022-08-07T20:52:52.917Z,98947.63
2022-08-07T20:55:23.898Z,98943.78
2022-08-07T20:58:03.879Z,98947.34
2022-08-07T21:00:42.841Z,98949.66
2022-08-07T21:03:19.301Z,98945.16
2022-08-07T21:05:56.514Z,98954.22
2022-08-07T21:08:37.851Z,98950.75
2022-08-07T21:11:14.474Z,98951.16
2022-08-07T21:14:16.595Z,98959.81
2022-08-07T21:16:57.016Z,98965.34
2022-08-07T21:19:51.005Z,98970.03
2022-08-07T21:22:28.620Z,98969.41
2022-08-07T21:25:12.361Z,98964.06
2022-08-07T21:28:01.804Z,98966.56
2022-08-07T21:30:39.295Z,98960.62
2022-08-07T21:33:17.709Z,98956.72
2022-08-07T21:36:11.619Z,98963.06
2022-08-07T21:39:02.309Z,98965.16
2022-08-07T21:42:01.416Z,98962.69
2022-08-07T21:44:44.262Z,98975.62
2022-08-07T21:47:34.657Z,98976.25
2022-08-07T21:50:06.100Z,98974.81
2022-08-07T21:52:58.762Z,98980.34
2022-08-07T21:55:31.876Z,98982.66
2022-08-07T21:58:45.767Z,98986.75
2022-08-07T22:01:20.976Z,98985.50
2022-08-07T22:04:11.979Z,98989.38
2022-08-07T22:07:01.819Z,98990.62
2022-08-07T22:09:34.787Z,98998.41
2022-08-07T22:12:21.741Z,99004.94
2022-08-07T22:16:42.807Z,98997.94
2022-08-07T22:17:57.899Z,98997.34
2022-08-07T22:20:40.050Z,98997.91
2022-08-07T22:23:25.282Z,98990.50
2022-08-07T22:26:22.955Z,98990.69
2022-08-07T22:29:15.160Z,98990.66
2022-08-07T22:32:00.084Z,98987.56
2022-08-07T22:34:41.793Z,98987.75
2022-08-07T22:38:03.432Z,98997.41
2022-08-07T22:41:10.007Z,98996.34
2022-08-07T22:43:56.402Z,99000.19
2022-08-07T22:47:03.526Z,98995.25
2022-08-07T22:49:33.829Z,98996.31
2022-08-07T22:52:19.656Z,99002.00
2022-08-07T22:55:29.695Z,98999.56
2022-08-07T22:57:58.982Z,99017.37
2022-08-07T23:01:02.881Z,99016.13
2022-08-07T23:03:59.069Z,99029.81
2022-08-07T23:06:30.342Z,99036.09
2022-08-07T23:10:00.650Z,99040.72
2022-08-07T23:12:51.576Z,99040.00
2022-08-07T23:16:07.248Z,99028.06
2022-08-07T23:19:48.223Z,99024.28
2022-08-07T23:22:52.307Z,99019.28
2022-08-07T23:25:32.065Z,99017.34
2022-08-07T23:28:28.703Z,99020.56
2022-08-07T23:31:06.960Z,99017.41
2022-08-07T23:34:34.012Z,99022.69
2022-08-07T23:37:19.444Z,99033.69
2022-08-07T23:40:03.182Z,99032.00
2022-08-07T23:42:45.562Z,99044.00
2022-08-07T23:46:03.413Z,99033.13
2022-08-07T23:48:40.746Z,99025.63
2022-08-07T23:52:59.570Z,99021.03
2022-08-07T23:54:36.229Z,99013.81
2022-08-07T23:57:31.072Z,99013.25
